sensor_id;sensor_type;location;lat;lon;timestamp;P1;durP1;ratioP1;P2;durP2;ratioP2
76210;SDS011;65003;49.518;11.280;2024-03-08T00:02:20;23.07;;;13.00;;
76210;SDS011;65003;49.518;11.280;2024-03-08T00:04:47;22.37;;;13.40;;
76210;SDS011;65003;49.518;11.280;2024-03-08T00:07:13;22.03;;;13.00;;
76210;SDS011;65003;49.518;11.280;2024-03-08T00:09:40;25.07;;;13.80;;
76210;SDS011;65003;49.518;11.280;2024-03-08T00:12:07;20.20;;;12.97;;
76210;SDS011;65003;49.518;11.280;2024-03-08T00:14:33;21.40;;;13.30;;
76210;SDS011;65003;49.518;11.280;2024-03-08T00:17:00;21.03;;;12.90;;
76210;SDS011;65003;49.518;11.280;2024-03-08T00:19:27;22.83;;;13.53;;
76210;SDS011;65003;49.518;11.280;2024-03-08T00:21:54;23.00;;;13.87;;
76210;SDS011;65003;49.518;11.280;2024-03-08T00:24:20;23.93;;;13.07;;
76210;SDS011;65003;49.518;11.280;2024-03-08T00:26:47;19.33;;;13.07;;
76210;SDS011;65003;49.518;11.280;2024-03-08T00:29:14;25.13;;;14.50;;
76210;SDS011;65003;49.518;11.280;2024-03-08T00:31:40;19.90;;;12.50;;
76210;SDS011;65003;49.518;11.280;2024-03-08T00:34:07;24.20;;;14.30;;
76210;SDS011;65003;49.518;11.280;2024-03-08T00:36:34;23.70;;;14.00;;
76210;SDS011;65003;49.518;11.280;2024-03-08T00:39:00;24.53;;;14.57;;
76210;SDS011;65003;49.518;11.280;2024-03-08T00:41:28;24.23;;;14.60;;
76210;SDS011;65003;49.518;11.280;2024-03-08T00:43:54;24.97;;;13.93;;
76210;SDS011;65003;49.518;11.280;2024-03-08T00:46:20;25.17;;;15.07;;
76210;SDS011;65003;49.518;11.280;2024-03-08T00:48:47;24.50;;;15.30;;
76210;SDS011;65003;49.518;11.280;2024-03-08T00:51:14;25.77;;;14.63;;
76210;SDS011;65003;49.518;11.280;2024-03-08T00:53:40;26.37;;;14.20;;
76210;SDS011;65003;49.518;11.280;2024-03-08T00:56:08;25.93;;;14.03;;
76210;SDS011;65003;49.518;11.280;2024-03-08T00:58:37;23.87;;;14.93;;
76210;SDS011;65003;49.518;11.280;2024-03-08T01:01:04;29.53;;;16.17;;
76210;SDS011;65003;49.518;11.280;2024-03-08T01:03:31;29.77;;;15.13;;
76210;SDS011;65003;49.518;11.280;2024-03-08T01:05:57;23.90;;;13.87;;
76210;SDS011;65003;49.518;11.280;2024-03-08T01:08:24;27.27;;;15.10;;
76210;SDS011;65003;49.518;11.280;2024-03-08T01:10:51;29.77;;;17.30;;
76210;SDS011;65003;49.518;11.280;2024-03-08T01:13:17;24.13;;;15.30;;
76210;SDS011;65003;49.518;11.280;2024-03-08T01:15:47;28.40;;;15.87;;
76210;SDS011;65003;49.518;11.280;2024-03-08T01:18:15;28.00;;;15.07;;
76210;SDS011;65003;49.518;11.280;2024-03-08T01:20:42;22.40;;;14.13;;
76210;SDS011;65003;49.518;11.280;2024-03-08T01:23:08;27.20;;;14.57;;
76210;SDS011;65003;49.518;11.280;2024-03-08T01:25:35;28.80;;;14.47;;
76210;SDS011;65003;49.518;11.280;2024-03-08T01:28:01;25.10;;;15.03;;
76210;SDS011;65003;49.518;11.280;2024-03-08T01:30:28;23.30;;;14.33;;
76210;SDS011;65003;49.518;11.280;2024-03-08T01:32:55;25.40;;;14.37;;
76210;SDS011;65003;49.518;11.280;2024-03-08T01:35:21;27.00;;;14.00;;
76210;SDS011;65003;49.518;11.280;2024-03-08T01:37:48;28.57;;;15.47;;
76210;SDS011;65003;49.518;11.280;2024-03-08T01:40:15;24.17;;;14.13;;
76210;SDS011;65003;49.518;11.280;2024-03-08T01:42:41;25.60;;;15.27;;
76210;SDS011;65003;49.518;11.280;2024-03-08T01:45:08;24.57;;;14.17;;
76210;SDS011;65003;49.518;11.280;2024-03-08T01:47:35;28.42;;;15.20;;
76210;SDS011;65003;49.518;11.280;2024-03-08T01:50:01;25.27;;;14.40;;
76210;SDS011;65003;49.518;11.280;2024-03-08T01:52:29;23.53;;;14.40;;
76210;SDS011;65003;49.518;11.280;2024-03-08T01:54:56;26.20;;;14.70;;
76210;SDS011;65003;49.518;11.280;2024-03-08T01:57:22;27.93;;;15.70;;
76210;SDS011;65003;49.518;11.280;2024-03-08T01:59:49;22.40;;;14.17;;
76210;SDS011;65003;49.518;11.280;2024-03-08T02:02:15;24.67;;;14.97;;
76210;SDS011;65003;49.518;11.280;2024-03-08T02:04:42;24.37;;;13.90;;
76210;SDS011;65003;49.518;11.280;2024-03-08T02:07:08;23.70;;;14.60;;
76210;SDS011;65003;49.518;11.280;2024-03-08T02:09:35;25.93;;;14.40;;
76210;SDS011;65003;49.518;11.280;2024-03-08T02:12:02;26.30;;;15.03;;
76210;SDS011;65003;49.518;11.280;2024-03-08T02:14:29;22.22;;;13.58;;
76210;SDS011;65003;49.518;11.280;2024-03-08T02:16:55;26.27;;;14.70;;
76210;SDS011;65003;49.518;11.280;2024-03-08T02:19:22;24.03;;;14.57;;
76210;SDS011;65003;49.518;11.280;2024-03-08T02:21:49;25.83;;;14.37;;
76210;SDS011;65003;49.518;11.280;2024-03-08T02:24:15;24.57;;;14.57;;
76210;SDS011;65003;49.518;11.280;2024-03-08T02:26:42;25.17;;;14.07;;
76210;SDS011;65003;49.518;11.280;2024-03-08T02:29:09;27.47;;;14.53;;
76210;SDS011;65003;49.518;11.280;2024-03-08T02:31:35;25.33;;;13.90;;
76210;SDS011;65003;49.518;11.280;2024-03-08T02:34:01;22.37;;;13.53;;
76210;SDS011;65003;49.518;11.280;2024-03-08T02:36:28;24.87;;;14.93;;
76210;SDS011;65003;49.518;11.280;2024-03-08T02:38:55;30.50;;;15.13;;
76210;SDS011;65003;49.518;11.280;2024-03-08T02:41:21;25.10;;;14.77;;
76210;SDS011;65003;49.518;11.280;2024-03-08T02:43:48;27.17;;;13.80;;
76210;SDS011;65003;49.518;11.280;2024-03-08T02:46:14;25.80;;;14.33;;
76210;SDS011;65003;49.518;11.280;2024-03-08T02:48:41;24.50;;;14.47;;
76210;SDS011;65003;49.518;11.280;2024-03-08T02:51:08;26.20;;;15.23;;
76210;SDS011;65003;49.518;11.280;2024-03-08T02:53:35;23.77;;;14.38;;
76210;SDS011;65003;49.518;11.280;2024-03-08T02:56:01;27.07;;;14.50;;
76210;SDS011;65003;49.518;11.280;2024-03-08T02:58:28;26.23;;;14.43;;
76210;SDS011;65003;49.518;11.280;2024-03-08T03:00:55;24.80;;;13.80;;
76210;SDS011;65003;49.518;11.280;2024-03-08T03:03:22;24.40;;;14.13;;
76210;SDS011;65003;49.518;11.280;2024-03-08T03:05:48;25.90;;;14.90;;
76210;SDS011;65003;49.518;11.280;2024-03-08T03:08:15;24.17;;;14.10;;
76210;SDS011;65003;49.518;11.280;2024-03-08T03:10:42;24.27;;;14.23;;
76210;SDS011;65003;49.518;11.280;2024-03-08T03:13:08;26.07;;;14.27;;
76210;SDS011;65003;49.518;11.280;2024-03-08T03:15:35;24.13;;;14.40;;
76210;SDS011;65003;49.518;11.280;2024-03-08T03:18:01;24.67;;;13.93;;
76210;SDS011;65003;49.518;11.280;2024-03-08T03:20:29;29.53;;;14.63;;
76210;SDS011;65003;49.518;11.280;2024-03-08T03:22:59;29.03;;;14.90;;
76210;SDS011;65003;49.518;11.280;2024-03-08T03:25:25;20.13;;;13.50;;
76210;SDS011;65003;49.518;11.280;2024-03-08T03:27:52;26.00;;;14.87;;
76210;SDS011;65003;49.518;11.280;2024-03-08T03:30:18;21.23;;;13.90;;
76210;SDS011;65003;49.518;11.280;2024-03-08T03:32:47;22.40;;;13.63;;
76210;SDS011;65003;49.518;11.280;2024-03-08T03:35:13;25.97;;;13.93;;
76210;SDS011;65003;49.518;11.280;2024-03-08T03:37:40;25.90;;;13.60;;
76210;SDS011;65003;49.518;11.280;2024-03-08T03:40:07;27.93;;;14.73;;
76210;SDS011;65003;49.518;11.280;2024-03-08T03:42:34;26.97;;;15.07;;
76210;SDS011;65003;49.518;11.280;2024-03-08T03:45:00;23.83;;;13.47;;
76210;SDS011;65003;49.518;11.280;2024-03-08T03:47:27;23.83;;;13.80;;
76210;SDS011;65003;49.518;11.280;2024-03-08T03:49:53;23.93;;;14.30;;
76210;SDS011;65003;49.518;11.280;2024-03-08T03:52:20;22.67;;;14.37;;
76210;SDS011;65003;49.518;11.280;2024-03-08T03:54:47;25.50;;;14.53;;
76210;SDS011;65003;49.518;11.280;2024-03-08T03:57:13;22.43;;;14.20;;
76210;SDS011;65003;49.518;11.280;2024-03-08T03:59:40;26.30;;;14.97;;
76210;SDS011;65003;49.518;11.280;2024-03-08T04:02:06;29.33;;;14.70;;
76210;SDS011;65003;49.518;11.280;2024-03-08T04:04:33;24.37;;;14.23;;
76210;SDS011;65003;49.518;11.280;2024-03-08T04:06:59;26.53;;;14.03;;
76210;SDS011;65003;49.518;11.280;2024-03-08T04:09:26;24.60;;;13.87;;
76210;SDS011;65003;49.518;11.280;2024-03-08T04:11:53;26.43;;;14.77;;
76210;SDS011;65003;49.518;11.280;2024-03-08T04:14:19;22.30;;;14.40;;
76210;SDS011;65003;49.518;11.280;2024-03-08T04:16:46;26.77;;;14.43;;
76210;SDS011;65003;49.518;11.280;2024-03-08T04:19:12;30.20;;;13.93;;
76210;SDS011;65003;49.518;11.280;2024-03-08T04:21:39;25.97;;;14.60;;
76210;SDS011;65003;49.518;11.280;2024-03-08T04:24:06;30.83;;;15.10;;
76210;SDS011;65003;49.518;11.280;2024-03-08T04:26:32;22.17;;;14.03;;
76210;SDS011;65003;49.518;11.280;2024-03-08T04:28:59;26.10;;;15.77;;
76210;SDS011;65003;49.518;11.280;2024-03-08T04:31:25;26.03;;;15.57;;
76210;SDS011;65003;49.518;11.280;2024-03-08T04:33:52;26.20;;;14.60;;
76210;SDS011;65003;49.518;11.280;2024-03-08T04:36:18;25.40;;;14.37;;
76210;SDS011;65003;49.518;11.280;2024-03-08T04:38:45;28.80;;;16.23;;
76210;SDS011;65003;49.518;11.280;2024-03-08T04:41:12;29.67;;;15.17;;
76210;SDS011;65003;49.518;11.280;2024-03-08T04:43:38;28.17;;;15.17;;
76210;SDS011;65003;49.518;11.280;2024-03-08T04:46:05;29.53;;;16.13;;
76210;SDS011;65003;49.518;11.280;2024-03-08T04:48:33;25.97;;;13.97;;
76210;SDS011;65003;49.518;11.280;2024-03-08T04:51:00;27.33;;;15.67;;
76210;SDS011;65003;49.518;11.280;2024-03-08T04:53:26;26.50;;;15.53;;
76210;SDS011;65003;49.518;11.280;2024-03-08T04:55:53;27.43;;;15.07;;
76210;SDS011;65003;49.518;11.280;2024-03-08T04:58:20;27.20;;;15.53;;
76210;SDS011;65003;49.518;11.280;2024-03-08T05:00:46;32.70;;;16.30;;
76210;SDS011;65003;49.518;11.280;2024-03-08T05:03:13;24.47;;;14.77;;
76210;SDS011;65003;49.518;11.280;2024-03-08T05:05:39;27.90;;;15.97;;
76210;SDS011;65003;49.518;11.280;2024-03-08T05:08:06;30.13;;;16.53;;
76210;SDS011;65003;49.518;11.280;2024-03-08T05:10:33;26.90;;;15.87;;
76210;SDS011;65003;49.518;11.280;2024-03-08T05:12:59;32.33;;;17.50;;
76210;SDS011;65003;49.518;11.280;2024-03-08T05:15:26;29.30;;;16.17;;
76210;SDS011;65003;49.518;11.280;2024-03-08T05:17:52;30.03;;;17.43;;
76210;SDS011;65003;49.518;11.280;2024-03-08T05:20:19;30.27;;;16.80;;
76210;SDS011;65003;49.518;11.280;2024-03-08T05:22:45;34.17;;;16.63;;
76210;SDS011;65003;49.518;11.280;2024-03-08T05:25:12;28.67;;;15.87;;
76210;SDS011;65003;49.518;11.280;2024-03-08T05:27:39;29.43;;;16.40;;
76210;SDS011;65003;49.518;11.280;2024-03-08T05:30:05;33.43;;;17.83;;
76210;SDS011;65003;49.518;11.280;2024-03-08T05:32:32;27.93;;;16.43;;
76210;SDS011;65003;49.518;11.280;2024-03-08T05:34:59;27.77;;;16.50;;
76210;SDS011;65003;49.518;11.280;2024-03-08T05:37:25;31.43;;;18.93;;
76210;SDS011;65003;49.518;11.280;2024-03-08T05:39:52;32.77;;;17.63;;
76210;SDS011;65003;49.518;11.280;2024-03-08T05:42:19;32.30;;;18.10;;
76210;SDS011;65003;49.518;11.280;2024-03-08T05:44:45;35.03;;;18.10;;
76210;SDS011;65003;49.518;11.280;2024-03-08T05:47:12;34.47;;;19.23;;
76210;SDS011;65003;49.518;11.280;2024-03-08T05:49:38;35.17;;;18.67;;
76210;SDS011;65003;49.518;11.280;2024-03-08T05:52:05;34.73;;;20.10;;
76210;SDS011;65003;49.518;11.280;2024-03-08T05:54:31;37.27;;;19.87;;
76210;SDS011;65003;49.518;11.280;2024-03-08T05:56:58;38.80;;;20.20;;
76210;SDS011;65003;49.518;11.280;2024-03-08T05:59:25;35.63;;;19.63;;
76210;SDS011;65003;49.518;11.280;2024-03-08T06:01:51;36.40;;;20.07;;
76210;SDS011;65003;49.518;11.280;2024-03-08T06:04:18;36.07;;;20.30;;
76210;SDS011;65003;49.518;11.280;2024-03-08T06:06:44;36.60;;;19.00;;
76210;SDS011;65003;49.518;11.280;2024-03-08T06:09:11;31.57;;;19.17;;
76210;SDS011;65003;49.518;11.280;2024-03-08T06:11:38;33.63;;;18.97;;
76210;SDS011;65003;49.518;11.280;2024-03-08T06:14:04;34.27;;;18.67;;
76210;SDS011;65003;49.518;11.280;2024-03-08T06:16:31;30.90;;;18.77;;
76210;SDS011;65003;49.518;11.280;2024-03-08T06:18:57;29.40;;;18.27;;
76210;SDS011;65003;49.518;11.280;2024-03-08T06:21:24;31.80;;;18.33;;
76210;SDS011;65003;49.518;11.280;2024-03-08T06:23:53;31.97;;;18.43;;
76210;SDS011;65003;49.518;11.280;2024-03-08T06:26:19;32.07;;;19.00;;
76210;SDS011;65003;49.518;11.280;2024-03-08T06:28:45;33.00;;;18.57;;
76210;SDS011;65003;49.518;11.280;2024-03-08T06:31:12;29.37;;;17.80;;
76210;SDS011;65003;49.518;11.280;2024-03-08T06:33:39;30.30;;;17.57;;
76210;SDS011;65003;49.518;11.280;2024-03-08T06:36:05;31.47;;;17.97;;
76210;SDS011;65003;49.518;11.280;2024-03-08T06:38:32;31.97;;;18.00;;
76210;SDS011;65003;49.518;11.280;2024-03-08T06:40:58;30.83;;;18.83;;
76210;SDS011;65003;49.518;11.280;2024-03-08T06:43:25;32.10;;;18.57;;
76210;SDS011;65003;49.518;11.280;2024-03-08T06:45:52;27.00;;;18.57;;
76210;SDS011;65003;49.518;11.280;2024-03-08T06:48:18;32.73;;;18.77;;
76210;SDS011;65003;49.518;11.280;2024-03-08T06:50:45;28.83;;;17.83;;
76210;SDS011;65003;49.518;11.280;2024-03-08T06:53:12;26.83;;;17.93;;
76210;SDS011;65003;49.518;11.280;2024-03-08T06:55:38;28.23;;;17.47;;
76210;SDS011;65003;49.518;11.280;2024-03-08T06:58:05;30.77;;;17.53;;
76210;SDS011;65003;49.518;11.280;2024-03-08T07:00:31;30.43;;;17.63;;
76210;SDS011;65003;49.518;11.280;2024-03-08T07:02:58;27.67;;;18.20;;
76210;SDS011;65003;49.518;11.280;2024-03-08T07:05:27;29.47;;;17.30;;
76210;SDS011;65003;49.518;11.280;2024-03-08T07:07:53;27.77;;;18.13;;
76210;SDS011;65003;49.518;11.280;2024-03-08T07:10:21;29.67;;;18.17;;
76210;SDS011;65003;49.518;11.280;2024-03-08T07:12:47;28.60;;;18.20;;
76210;SDS011;65003;49.518;11.280;2024-03-08T07:15:13;27.90;;;17.53;;
76210;SDS011;65003;49.518;11.280;2024-03-08T07:17:40;29.27;;;17.87;;
76210;SDS011;65003;49.518;11.280;2024-03-08T07:20:07;28.13;;;17.07;;
76210;SDS011;65003;49.518;11.280;2024-03-08T07:22:33;28.00;;;16.83;;
76210;SDS011;65003;49.518;11.280;2024-03-08T07:25:00;25.37;;;16.27;;
76210;SDS011;65003;49.518;11.280;2024-03-08T07:27:46;25.43;;;17.70;;
76210;SDS011;65003;49.518;11.280;2024-03-08T07:30:14;24.90;;;16.73;;
76210;SDS011;65003;49.518;11.280;2024-03-08T07:32:46;24.33;;;16.07;;
76210;SDS011;65003;49.518;11.280;2024-03-08T07:35:13;26.20;;;16.87;;
76210;SDS011;65003;49.518;11.280;2024-03-08T07:37:40;30.47;;;16.57;;
76210;SDS011;65003;49.518;11.280;2024-03-08T07:40:07;24.80;;;16.40;;
76210;SDS011;65003;49.518;11.280;2024-03-08T07:42:33;25.83;;;16.97;;
76210;SDS011;65003;49.518;11.280;2024-03-08T07:45:00;28.27;;;17.37;;
76210;SDS011;65003;49.518;11.280;2024-03-08T07:47:27;25.53;;;17.33;;
76210;SDS011;65003;49.518;11.280;2024-03-08T07:49:53;26.23;;;16.73;;
76210;SDS011;65003;49.518;11.280;2024-03-08T07:52:20;24.77;;;16.13;;
76210;SDS011;65003;49.518;11.280;2024-03-08T07:54:47;25.40;;;16.50;;
76210;SDS011;65003;49.518;11.280;2024-03-08T07:57:14;23.50;;;16.23;;
76210;SDS011;65003;49.518;11.280;2024-03-08T07:59:40;25.90;;;17.00;;
76210;SDS011;65003;49.518;11.280;2024-03-08T08:02:07;24.00;;;16.40;;
76210;SDS011;65003;49.518;11.280;2024-03-08T08:04:34;26.07;;;16.17;;
76210;SDS011;65003;49.518;11.280;2024-03-08T08:07:00;30.47;;;18.23;;
76210;SDS011;65003;49.518;11.280;2024-03-08T08:09:27;26.40;;;17.30;;
76210;SDS011;65003;49.518;11.280;2024-03-08T08:11:55;25.67;;;17.13;;
76210;SDS011;65003;49.518;11.280;2024-03-08T08:14:21;24.67;;;16.87;;
76210;SDS011;65003;49.518;11.280;2024-03-08T08:16:48;23.33;;;16.23;;
76210;SDS011;65003;49.518;11.280;2024-03-08T08:19:15;23.50;;;16.20;;
76210;SDS011;65003;49.518;11.280;2024-03-08T08:21:41;24.13;;;17.27;;
76210;SDS011;65003;49.518;11.280;2024-03-08T08:24:08;23.03;;;16.43;;
76210;SDS011;65003;49.518;11.280;2024-03-08T08:26:35;24.73;;;16.10;;
76210;SDS011;65003;49.518;11.280;2024-03-08T08:29:02;26.43;;;17.80;;
76210;SDS011;65003;49.518;11.280;2024-03-08T08:31:29;25.07;;;16.80;;
76210;SDS011;65003;49.518;11.280;2024-03-08T08:33:55;23.60;;;16.27;;
76210;SDS011;65003;49.518;11.280;2024-03-08T08:36:25;26.13;;;15.90;;
76210;SDS011;65003;49.518;11.280;2024-03-08T08:38:51;21.67;;;15.40;;
76210;SDS011;65003;49.518;11.280;2024-03-08T08:41:19;24.03;;;15.47;;
76210;SDS011;65003;49.518;11.280;2024-03-08T08:43:46;25.37;;;16.27;;
76210;SDS011;65003;49.518;11.280;2024-03-08T08:46:12;25.40;;;15.57;;
76210;SDS011;65003;49.518;11.280;2024-03-08T08:48:40;25.50;;;17.00;;
76210;SDS011;65003;49.518;11.280;2024-03-08T08:51:10;23.87;;;15.53;;
76210;SDS011;65003;49.518;11.280;2024-03-08T08:53:39;23.60;;;15.50;;
76210;SDS011;65003;49.518;11.280;2024-03-08T08:56:06;22.83;;;15.73;;
76210;SDS011;65003;49.518;11.280;2024-03-08T08:58:32;21.20;;;15.77;;
76210;SDS011;65003;49.518;11.280;2024-03-08T09:00:59;22.77;;;14.60;;
76210;SDS011;65003;49.518;11.280;2024-03-08T09:03:26;20.93;;;14.83;;
76210;SDS011;65003;49.518;11.280;2024-03-08T09:05:52;23.37;;;15.73;;
76210;SDS011;65003;49.518;11.280;2024-03-08T09:08:19;23.00;;;14.70;;
76210;SDS011;65003;49.518;11.280;2024-03-08T09:10:46;20.90;;;14.67;;
76210;SDS011;65003;49.518;11.280;2024-03-08T09:13:12;22.63;;;14.87;;
76210;SDS011;65003;49.518;11.280;2024-03-08T09:15:39;24.97;;;15.80;;
76210;SDS011;65003;49.518;11.280;2024-03-08T09:18:06;21.67;;;14.87;;
76210;SDS011;65003;49.518;11.280;2024-03-08T09:20:32;22.70;;;15.20;;
76210;SDS011;65003;49.518;11.280;2024-03-08T09:23:01;22.10;;;15.33;;
76210;SDS011;65003;49.518;11.280;2024-03-08T09:25:27;21.47;;;14.83;;
76210;SDS011;65003;49.518;11.280;2024-03-08T09:27:54;22.03;;;15.07;;
76210;SDS011;65003;49.518;11.280;2024-03-08T09:30:20;20.20;;;14.23;;
76210;SDS011;65003;49.518;11.280;2024-03-08T09:32:49;19.73;;;14.63;;
76210;SDS011;65003;49.518;11.280;2024-03-08T09:35:16;19.20;;;13.60;;
76210;SDS011;65003;49.518;11.280;2024-03-08T09:37:42;18.73;;;13.47;;
76210;SDS011;65003;49.518;11.280;2024-03-08T09:40:09;22.37;;;13.87;;
76210;SDS011;65003;49.518;11.280;2024-03-08T09:42:36;23.00;;;14.47;;
76210;SDS011;65003;49.518;11.280;2024-03-08T09:45:11;19.60;;;14.13;;
76210;SDS011;65003;49.518;11.280;2024-03-08T09:47:41;18.70;;;13.83;;
76210;SDS011;65003;49.518;11.280;2024-03-08T09:50:07;19.07;;;12.80;;
76210;SDS011;65003;49.518;11.280;2024-03-08T09:52:36;21.27;;;14.00;;
76210;SDS011;65003;49.518;11.280;2024-03-08T09:55:06;17.47;;;11.80;;
76210;SDS011;65003;49.518;11.280;2024-03-08T09:57:33;16.23;;;12.63;;
76210;SDS011;65003;49.518;11.280;2024-03-08T09:59:59;17.43;;;12.53;;
76210;SDS011;65003;49.518;11.280;2024-03-08T10:02:26;18.40;;;13.00;;
76210;SDS011;65003;49.518;11.280;2024-03-08T10:04:52;18.63;;;13.13;;
76210;SDS011;65003;49.518;11.280;2024-03-08T10:07:19;17.23;;;12.27;;
76210;SDS011;65003;49.518;11.280;2024-03-08T10:09:46;16.73;;;12.57;;
76210;SDS011;65003;49.518;11.280;2024-03-08T10:12:13;17.83;;;12.00;;
76210;SDS011;65003;49.518;11.280;2024-03-08T10:14:39;16.50;;;11.27;;
76210;SDS011;65003;49.518;11.280;2024-03-08T10:17:06;16.97;;;12.23;;
76210;SDS011;65003;49.518;11.280;2024-03-08T10:19:33;16.20;;;12.47;;
76210;SDS011;65003;49.518;11.280;2024-03-08T10:22:01;21.13;;;12.90;;
76210;SDS011;65003;49.518;11.280;2024-03-08T10:24:28;15.67;;;12.57;;
76210;SDS011;65003;49.518;11.280;2024-03-08T10:26:59;18.23;;;12.83;;
76210;SDS011;65003;49.518;11.280;2024-03-08T10:29:25;16.53;;;12.40;;
76210;SDS011;65003;49.518;11.280;2024-03-08T10:31:51;16.77;;;12.53;;
76210;SDS011;65003;49.518;11.280;2024-03-08T10:34:18;19.80;;;12.87;;
76210;SDS011;65003;49.518;11.280;2024-03-08T10:36:45;16.53;;;12.60;;
76210;SDS011;65003;49.518;11.280;2024-03-08T10:39:18;17.07;;;11.97;;
76210;SDS011;65003;49.518;11.280;2024-03-08T10:41:42;16.30;;;12.57;;
76210;SDS011;65003;49.518;11.280;2024-03-08T10:44:10;16.03;;;12.07;;
76210;SDS011;65003;49.518;11.280;2024-03-08T10:47:14;15.73;;;11.80;;
76210;SDS011;65003;49.518;11.280;2024-03-08T10:49:37;15.20;;;12.00;;
76210;SDS011;65003;49.518;11.280;2024-03-08T10:52:04;13.53;;;10.33;;
76210;SDS011;65003;49.518;11.280;2024-03-08T10:54:30;17.13;;;10.43;;
76210;SDS011;65003;49.518;11.280;2024-03-08T10:56:57;14.83;;;11.17;;
76210;SDS011;65003;49.518;11.280;2024-03-08T10:59:24;16.63;;;12.37;;
76210;SDS011;65003;49.518;11.280;2024-03-08T11:01:51;15.70;;;11.33;;
76210;SDS011;65003;49.518;11.280;2024-03-08T11:04:17;13.60;;;11.17;;
76210;SDS011;65003;49.518;11.280;2024-03-08T11:06:44;14.30;;;10.73;;
76210;SDS011;65003;49.518;11.280;2024-03-08T11:09:27;14.90;;;11.67;;
76210;SDS011;65003;49.518;11.280;2024-03-08T11:11:57;13.93;;;11.03;;
76210;SDS011;65003;49.518;11.280;2024-03-08T11:16:58;14.67;;;11.53;;
76210;SDS011;65003;49.518;11.280;2024-03-08T11:19:24;17.83;;;10.30;;
76210;SDS011;65003;49.518;11.280;2024-03-08T11:21:58;16.00;;;11.30;;
76210;SDS011;65003;49.518;11.280;2024-03-08T11:24:25;15.10;;;11.60;;
76210;SDS011;65003;49.518;11.280;2024-03-08T11:26:54;14.33;;;10.93;;
76210;SDS011;65003;49.518;11.280;2024-03-08T11:32:05;15.77;;;11.53;;
76210;SDS011;65003;49.518;11.280;2024-03-08T11:34:33;14.77;;;11.90;;
76210;SDS011;65003;49.518;11.280;2024-03-08T11:37:00;16.00;;;11.37;;
76210;SDS011;65003;49.518;11.280;2024-03-08T11:39:27;17.43;;;13.30;;
76210;SDS011;65003;49.518;11.280;2024-03-08T11:41:53;15.20;;;11.93;;
76210;SDS011;65003;49.518;11.280;2024-03-08T11:44:20;15.73;;;10.83;;
76210;SDS011;65003;49.518;11.280;2024-03-08T11:46:46;16.03;;;11.20;;
76210;SDS011;65003;49.518;11.280;2024-03-08T11:49:13;15.97;;;10.90;;
76210;SDS011;65003;49.518;11.280;2024-03-08T11:51:40;17.60;;;11.50;;
76210;SDS011;65003;49.518;11.280;2024-03-08T11:54:10;15.73;;;11.60;;
76210;SDS011;65003;49.518;11.280;2024-03-08T11:56:33;16.70;;;11.00;;
76210;SDS011;65003;49.518;11.280;2024-03-08T11:58:59;17.87;;;11.47;;
76210;SDS011;65003;49.518;11.280;2024-03-08T12:01:26;17.67;;;11.23;;
76210;SDS011;65003;49.518;11.280;2024-03-08T12:03:53;15.37;;;10.67;;
76210;SDS011;65003;49.518;11.280;2024-03-08T12:06:19;19.63;;;10.83;;
76210;SDS011;65003;49.518;11.280;2024-03-08T12:08:46;16.00;;;10.80;;
76210;SDS011;65003;49.518;11.280;2024-03-08T12:11:15;14.37;;;10.37;;
76210;SDS011;65003;49.518;11.280;2024-03-08T12:13:41;14.83;;;10.67;;
76210;SDS011;65003;49.518;11.280;2024-03-08T12:16:08;15.07;;;10.30;;
76210;SDS011;65003;49.518;11.280;2024-03-08T12:18:35;14.23;;;10.70;;
76210;SDS011;65003;49.518;11.280;2024-03-08T12:21:07;17.87;;;11.17;;
76210;SDS011;65003;49.518;11.280;2024-03-08T12:23:34;14.93;;;10.87;;
76210;SDS011;65003;49.518;11.280;2024-03-08T12:28:35;14.07;;;9.43;;
76210;SDS011;65003;49.518;11.280;2024-03-08T12:31:01;14.73;;;9.63;;
76210;SDS011;65003;49.518;11.280;2024-03-08T12:33:28;14.80;;;10.50;;
76210;SDS011;65003;49.518;11.280;2024-03-08T12:35:55;14.57;;;10.50;;
76210;SDS011;65003;49.518;11.280;2024-03-08T12:38:21;17.00;;;10.80;;
76210;SDS011;65003;49.518;11.280;2024-03-08T12:40:49;15.40;;;9.93;;
76210;SDS011;65003;49.518;11.280;2024-03-08T12:43:16;15.13;;;9.40;;
76210;SDS011;65003;49.518;11.280;2024-03-08T12:45:42;13.30;;;8.70;;
76210;SDS011;65003;49.518;11.280;2024-03-08T12:48:12;14.07;;;9.83;;
76210;SDS011;65003;49.518;11.280;2024-03-08T12:50:38;11.80;;;8.30;;
76210;SDS011;65003;49.518;11.280;2024-03-08T12:53:05;12.63;;;9.40;;
76210;SDS011;65003;49.518;11.280;2024-03-08T12:55:31;12.63;;;7.97;;
76210;SDS011;65003;49.518;11.280;2024-03-08T12:57:58;12.53;;;8.40;;
76210;SDS011;65003;49.518;11.280;2024-03-08T13:00:24;13.17;;;9.20;;
76210;SDS011;65003;49.518;11.280;2024-03-08T13:02:51;12.90;;;8.63;;
76210;SDS011;65003;49.518;11.280;2024-03-08T13:05:18;11.67;;;8.20;;
76210;SDS011;65003;49.518;11.280;2024-03-08T13:07:44;12.27;;;8.47;;
76210;SDS011;65003;49.518;11.280;2024-03-08T13:10:14;12.80;;;8.57;;
76210;SDS011;65003;49.518;11.280;2024-03-08T13:12:41;10.77;;;7.03;;
76210;SDS011;65003;49.518;11.280;2024-03-08T13:15:07;10.03;;;7.37;;
76210;SDS011;65003;49.518;11.280;2024-03-08T13:17:33;10.50;;;7.43;;
76210;SDS011;65003;49.518;11.280;2024-03-08T13:20:00;14.77;;;8.60;;
76210;SDS011;65003;49.518;11.280;2024-03-08T13:22:27;12.33;;;8.03;;
76210;SDS011;65003;49.518;11.280;2024-03-08T13:24:53;11.33;;;7.50;;
76210;SDS011;65003;49.518;11.280;2024-03-08T13:27:20;10.40;;;7.80;;
76210;SDS011;65003;49.518;11.280;2024-03-08T13:29:47;9.33;;;7.57;;
76210;SDS011;65003;49.518;11.280;2024-03-08T13:32:13;10.03;;;7.13;;
76210;SDS011;65003;49.518;11.280;2024-03-08T13:34:41;10.77;;;8.10;;
76210;SDS011;65003;49.518;11.280;2024-03-08T13:37:07;11.00;;;7.67;;
76210;SDS011;65003;49.518;11.280;2024-03-08T13:39:34;12.43;;;7.97;;
76210;SDS011;65003;49.518;11.280;2024-03-08T13:42:00;10.87;;;7.23;;
76210;SDS011;65003;49.518;11.280;2024-03-08T13:44:27;10.23;;;7.53;;
76210;SDS011;65003;49.518;11.280;2024-03-08T13:46:53;8.83;;;6.90;;
76210;SDS011;65003;49.518;11.280;2024-03-08T13:49:20;11.87;;;7.53;;
76210;SDS011;65003;49.518;11.280;2024-03-08T13:51:47;11.40;;;7.77;;
76210;SDS011;65003;49.518;11.280;2024-03-08T13:54:13;11.93;;;7.73;;
76210;SDS011;65003;49.518;11.280;2024-03-08T13:56:40;10.10;;;7.37;;
76210;SDS011;65003;49.518;11.280;2024-03-08T13:59:06;9.20;;;7.07;;
76210;SDS011;65003;49.518;11.280;2024-03-08T14:01:33;11.10;;;6.87;;
76210;SDS011;65003;49.518;11.280;2024-03-08T14:03:59;9.50;;;7.30;;
76210;SDS011;65003;49.518;11.280;2024-03-08T14:06:26;9.50;;;7.30;;
76210;SDS011;65003;49.518;11.280;2024-03-08T14:08:53;10.33;;;6.80;;
76210;SDS011;65003;49.518;11.280;2024-03-08T14:11:19;10.27;;;6.73;;
76210;SDS011;65003;49.518;11.280;2024-03-08T14:13:46;9.30;;;7.07;;
76210;SDS011;65003;49.518;11.280;2024-03-08T14:16:13;10.77;;;7.50;;
76210;SDS011;65003;49.518;11.280;2024-03-08T14:18:39;10.13;;;6.57;;